Praia Da Marosa — ECDZ — position and weather

sailwx.info

Track history (hours):
 
Tides and Currents Weather Stations Pressure Air Temp Water Temp Dewpoint Dewpoint Depression Visibility Wind Speed Wind Dir Waves Ship Positions

Praia Da Marosa

Last reported at 2017-Oct-26 18:38 UTC. Time now 2017-Nov-20 23:11 UTC.
Position N 43°42' W 007°20'.
Warning: this ship's position is 25 days out of date.

Length 31 m.

Type: Fishing. MMSI: 224097970.

Date/timePositionNaut miles runAvg speedWind from/ knotsBaromVisibWave heightAir tempDewpointWater temp
2017-Oct-26 18:38N 43°42' W 007°20'2 9.0
2017-Oct-26 18:27N 43°43' W 007°20'4 9.2
2017-Oct-26 18:00N 43°47' W 007°19'2 3.1
2017-Oct-26 17:30N 43°49' W 007°18'1 2.8
2017-Oct-26 17:01N 43°50' W 007°18'2 3.3
2017-Oct-26 16:30N 43°52' W 007°18'2 3.3
2017-Oct-26 16:00N 43°53' W 007°18'2 3.2
2017-Oct-26 15:30N 43°55' W 007°18'2 3.6
2017-Oct-26 14:59N 43°57' W 007°18'8 8.4
2017-Oct-26 14:01N 44°04' W 007°22'0 0.5
2017-Oct-26 13:43N 44°04' W 007°22'9 2.2
2017-Oct-26 09:23N 44°03' W 007°35'9 3.1
2017-Oct-26 06:28N 44°05' W 007°48'3 4.8
2017-Oct-26 05:50N 44°01' W 007°48'8 1.0
2017-Oct-25 22:07N 44°02' W 007°59'1 3.2
2017-Oct-25 21:43N 44°02' W 007°57'1 3.2
2017-Oct-25 21:20N 44°02' W 007°55'1 3.2
2017-Oct-25 21:01N 44°02' W 007°54'2 3.1
2017-Oct-25 20:29N 44°01' W 007°51'1 3.1
2017-Oct-25 20:01N 44°01' W 007°49'2 4.3
2017-Oct-25 19:31N 44°01' W 007°47'3 5.4
2017-Oct-25 19:01N 43°59' W 007°43'1 2.1
2017-Oct-25 18:30N 43°59' W 007°42'1 2.8
2017-Oct-25 18:00N 43°59' W 007°40'1 2.8
2017-Oct-25 17:30N 44°00' W 007°38'2 3.1
2017-Oct-25 17:01N 44°01' W 007°36'2 3.1
2017-Oct-25 16:31N 44°01' W 007°34'2 3.1
2017-Oct-25 16:01N 44°02' W 007°32'2 3.2
2017-Oct-25 15:30N 44°02' W 007°30'2 3.1
2017-Oct-25 15:00N 44°03' W 007°28'2 3.9
2017-Oct-25 14:30N 44°03' W 007°25'3 4.9
2017-Oct-25 13:59N 44°05' W 007°23'0 0.8
2017-Oct-25 13:28N 44°05' W 007°24'2 3.0
2017-Oct-25 12:53N 44°05' W 007°26'1 3.2
2017-Oct-25 12:31N 44°05' W 007°28'1 2.6
2017-Oct-25 11:59N 44°05' W 007°30'2 2.8
2017-Oct-25 11:23N 44°05' W 007°32'1 2.9
2017-Oct-25 11:00N 44°04' W 007°34'2 3.6
2017-Oct-25 10:28N 44°04' W 007°36'0 0.3
2017-Oct-25 09:58N 44°04' W 007°36'14 2.7
2017-Oct-25 04:48N 44°00' W 007°18'1 3.2
2017-Oct-25 04:30N 43°59' W 007°17'9 0.7
2017-Oct-24 15:04N 44°05' W 007°26'1 3.1
2017-Oct-24 14:40N 44°05' W 007°28'4 1.3
2017-Oct-24 11:22N 44°04' W 007°22'1 1.2
2017-Oct-24 10:51N 44°04' W 007°22'1 1.0
2017-Oct-24 10:11N 44°04' W 007°23'1 3.1
2017-Oct-24 09:58N 44°05' W 007°24'4 2.9
2017-Oct-24 08:35N 44°05' W 007°30'0 2.9
2017-Oct-24 08:30N 44°05' W 007°30'2 2.9
2017-Oct-24 07:59N 44°05' W 007°32'6 1.2
2017-Oct-24 03:31N 43°60' W 007°28'0 3.2
2017-Oct-24 03:30N 43°60' W 007°28'2 3.3
2017-Oct-24 03:01N 43°59' W 007°26'1 2.2
2017-Oct-24 02:30N 43°59' W 007°27'1 1.7
2017-Oct-24 02:00N 43°59' W 007°29'2 3.2
2017-Oct-24 01:30N 43°59' W 007°31'2 3.3
2017-Oct-24 01:00N 43°59' W 007°33'2 3.2
2017-Oct-24 00:31N 43°59' W 007°35'2 3.2
2017-Oct-24 00:01N 43°59' W 007°38'2 3.2
2017-Oct-23 23:30N 43°59' W 007°40'2 3.4
2017-Oct-23 23:00N 43°59' W 007°42'1 2.1
2017-Oct-23 22:31N 43°59' W 007°44'1 2.9
2017-Oct-23 22:00N 43°59' W 007°42'2 3.0
2017-Oct-23 21:30N 43°60' W 007°40'6 0.6
2017-Oct-23 10:39N 44°04' W 007°34'13 2.7
2017-Oct-23 05:58N 43°60' W 007°18'2 3.2
2017-Oct-23 05:29N 43°59' W 007°16'2 3.2
2017-Oct-23 05:00N 43°58' W 007°14'2 3.2
2017-Oct-23 04:30N 43°57' W 007°12'2 3.1
2017-Oct-23 04:00N 43°56' W 007°11'2 3.1
2017-Oct-23 03:30N 43°55' W 007°09'2 3.7
2017-Oct-23 02:59N 43°54' W 007°07'1 1.2
2017-Oct-23 02:30N 43°53' W 007°07'2 3.1
2017-Oct-23 02:00N 43°52' W 007°07'2 3.1
2017-Oct-23 01:30N 43°51' W 007°09'2 3.2
2017-Oct-23 01:01N 43°50' W 007°10'2 3.2
2017-Oct-23 00:31N 43°49' W 007°12'2 3.2
2017-Oct-23 00:00N 43°48' W 007°13'2 3.2
2017-Oct-22 23:30N 43°46' W 007°14'3 5.7
2017-Oct-22 22:58N 43°44' W 007°17'  
2017-Oct-20 17:16N 43°42' W 007°20'3 8.9
2017-Oct-20 16:58N 43°45' W 007°21'4 8.9
2017-Oct-20 16:30N 43°49' W 007°21'4 8.6
2017-Oct-20 16:01N 43°53' W 007°21'5 9.1
2017-Oct-20 15:30N 43°58' W 007°21'  
Track history (hours):
 
Tides and Currents Weather Stations Pressure Air Temp Water Temp Dewpoint Dewpoint Depression Visibility Wind Speed Wind Dir Waves Ship Positions

Praia Da Marosa

Last reported at 2017-Oct-26 18:38 UTC. Time now 2017-Nov-20 23:11 UTC.
Position N 43°42' W 007°20'.
Warning: this ship's position is 25 days out of date.

Length 31 m.

Type: Fishing. MMSI: 224097970.

Date/timePositionNaut miles runAvg speedWind from/ knotsBaromVisibWave heightAir tempDewpointWater temp
2017-Oct-26 18:38N 43°42' W 007°20'2 9.0
2017-Oct-26 18:27N 43°43' W 007°20'4 9.2
2017-Oct-26 18:00N 43°47' W 007°19'2 3.1
2017-Oct-26 17:30N 43°49' W 007°18'1 2.8
2017-Oct-26 17:01N 43°50' W 007°18'2 3.3
2017-Oct-26 16:30N 43°52' W 007°18'2 3.3
2017-Oct-26 16:00N 43°53' W 007°18'2 3.2
2017-Oct-26 15:30N 43°55' W 007°18'2 3.6
2017-Oct-26 14:59N 43°57' W 007°18'8 8.4
2017-Oct-26 14:01N 44°04' W 007°22'0 0.5
2017-Oct-26 13:43N 44°04' W 007°22'9 2.2
2017-Oct-26 09:23N 44°03' W 007°35'9 3.1
2017-Oct-26 06:28N 44°05' W 007°48'3 4.8
2017-Oct-26 05:50N 44°01' W 007°48'8 1.0
2017-Oct-25 22:07N 44°02' W 007°59'1 3.2
2017-Oct-25 21:43N 44°02' W 007°57'1 3.2
2017-Oct-25 21:20N 44°02' W 007°55'1 3.2
2017-Oct-25 21:01N 44°02' W 007°54'2 3.1
2017-Oct-25 20:29N 44°01' W 007°51'1 3.1
2017-Oct-25 20:01N 44°01' W 007°49'2 4.3
2017-Oct-25 19:31N 44°01' W 007°47'3 5.4
2017-Oct-25 19:01N 43°59' W 007°43'1 2.1
2017-Oct-25 18:30N 43°59' W 007°42'1 2.8
2017-Oct-25 18:00N 43°59' W 007°40'1 2.8
2017-Oct-25 17:30N 44°00' W 007°38'2 3.1
2017-Oct-25 17:01N 44°01' W 007°36'2 3.1
2017-Oct-25 16:31N 44°01' W 007°34'2 3.1
2017-Oct-25 16:01N 44°02' W 007°32'2 3.2
2017-Oct-25 15:30N 44°02' W 007°30'2 3.1
2017-Oct-25 15:00N 44°03' W 007°28'2 3.9
2017-Oct-25 14:30N 44°03' W 007°25'3 4.9
2017-Oct-25 13:59N 44°05' W 007°23'0 0.8
2017-Oct-25 13:28N 44°05' W 007°24'2 3.0
2017-Oct-25 12:53N 44°05' W 007°26'1 3.2
2017-Oct-25 12:31N 44°05' W 007°28'1 2.6
2017-Oct-25 11:59N 44°05' W 007°30'2 2.8
2017-Oct-25 11:23N 44°05' W 007°32'1 2.9
2017-Oct-25 11:00N 44°04' W 007°34'2 3.6
2017-Oct-25 10:28N 44°04' W 007°36'0 0.3
2017-Oct-25 09:58N 44°04' W 007°36'14 2.7
2017-Oct-25 04:48N 44°00' W 007°18'1 3.2
2017-Oct-25 04:30N 43°59' W 007°17'9 0.7
2017-Oct-24 15:04N 44°05' W 007°26'1 3.1
2017-Oct-24 14:40N 44°05' W 007°28'4 1.3
2017-Oct-24 11:22N 44°04' W 007°22'1 1.2
2017-Oct-24 10:51N 44°04' W 007°22'1 1.0
2017-Oct-24 10:11N 44°04' W 007°23'1 3.1
2017-Oct-24 09:58N 44°05' W 007°24'4 2.9
2017-Oct-24 08:35N 44°05' W 007°30'0 2.9
2017-Oct-24 08:30N 44°05' W 007°30'2 2.9
2017-Oct-24 07:59N 44°05' W 007°32'6 1.2
2017-Oct-24 03:31N 43°60' W 007°28'0 3.2
2017-Oct-24 03:30N 43°60' W 007°28'2 3.3
2017-Oct-24 03:01N 43°59' W 007°26'1 2.2
2017-Oct-24 02:30N 43°59' W 007°27'1 1.7
2017-Oct-24 02:00N 43°59' W 007°29'2 3.2
2017-Oct-24 01:30N 43°59' W 007°31'2 3.3
2017-Oct-24 01:00N 43°59' W 007°33'2 3.2
2017-Oct-24 00:31N 43°59' W 007°35'2 3.2
2017-Oct-24 00:01N 43°59' W 007°38'2 3.2
2017-Oct-23 23:30N 43°59' W 007°40'2 3.4
2017-Oct-23 23:00N 43°59' W 007°42'1 2.1
2017-Oct-23 22:31N 43°59' W 007°44'1 2.9
2017-Oct-23 22:00N 43°59' W 007°42'2 3.0
2017-Oct-23 21:30N 43°60' W 007°40'6 0.6
2017-Oct-23 10:39N 44°04' W 007°34'13 2.7
2017-Oct-23 05:58N 43°60' W 007°18'2 3.2
2017-Oct-23 05:29N 43°59' W 007°16'2 3.2
2017-Oct-23 05:00N 43°58' W 007°14'2 3.2
2017-Oct-23 04:30N 43°57' W 007°12'2 3.1
2017-Oct-23 04:00N 43°56' W 007°11'2 3.1
2017-Oct-23 03:30N 43°55' W 007°09'2 3.7
2017-Oct-23 02:59N 43°54' W 007°07'1 1.2
2017-Oct-23 02:30N 43°53' W 007°07'2 3.1
2017-Oct-23 02:00N 43°52' W 007°07'2 3.1
2017-Oct-23 01:30N 43°51' W 007°09'2 3.2
2017-Oct-23 01:01N 43°50' W 007°10'2 3.2
2017-Oct-23 00:31N 43°49' W 007°12'2 3.2
2017-Oct-23 00:00N 43°48' W 007°13'2 3.2
2017-Oct-22 23:30N 43°46' W 007°14'3 5.7
2017-Oct-22 22:58N 43°44' W 007°17'  
2017-Oct-20 17:16N 43°42' W 007°20'3 8.9
2017-Oct-20 16:58N 43°45' W 007°21'4 8.9
2017-Oct-20 16:30N 43°49' W 007°21'4 8.6
2017-Oct-20 16:01N 43°53' W 007°21'5 9.1
2017-Oct-20 15:30N 43°58' W 007°21'  

Dump ship's entire track history